Time;durP1;ratioP1;P1;durP2;ratioP2;P2;SDS_P1;SDS_P2;PMS_P1;PMS_P2;Temp;Humidity;BMP_temperature;BMP_pressure;BME280_temperature;BME280_humidity;BME280_pressure;Samples;Min_cycle;Max_cycle;Signal;HPM_P1;HPM_P2
2024/01/15 00:02:13;;;;;;;12.27;3.00;;;;;;;;;;4934428;29;20407;-81
2024/01/15 00:04:40;;;;;;;12.82;2.67;;;;;;;;;;4917702;29;20454;-81
2024/01/15 00:07:07;;;;;;;14.63;2.50;;;;;;;;;;4916387;29;20412;-82
2024/01/15 00:09:33;;;;;;;13.43;2.60;;;;;;;;;;4933550;29;20412;-81
2024/01/15 00:12:00;;;;;;;12.23;2.55;;;;;;;;;;4931255;29;20431;-82
2024/01/15 00:14:26;;;;;;;11.93;1.88;;;;;;;;;;4933968;29;20450;-82
2024/01/15 00:16:54;;;;;;;11.25;2.05;;;;;;;;;;4915856;29;20522;-82
2024/01/15 00:19:21;;;;;;;12.95;2.33;;;;;;;;;;4932953;29;20415;-82
2024/01/15 00:21:47;;;;;;;11.25;2.30;;;;;;;;;;4902574;29;20415;-82
2024/01/15 00:24:13;;;;;;;13.02;2.20;;;;;;;;;;4932274;29;20431;-82
2024/01/15 00:26:40;;;;;;;11.20;2.22;;;;;;;;;;4916409;29;20502;-83
2024/01/15 00:29:07;;;;;;;10.27;2.20;;;;;;;;;;4901087;29;20788;-83
2024/01/15 00:31:33;;;;;;;15.77;2.20;;;;;;;;;;4917093;29;20418;-82
2024/01/15 00:33:59;;;;;;;13.63;2.20;;;;;;;;;;4917341;29;20486;-83
2024/01/15 00:36:26;;;;;;;11.05;2.08;;;;;;;;;;4933131;29;20426;-82
2024/01/15 00:38:52;;;;;;;17.38;2.58;;;;;;;;;;4916789;29;20471;-82
2024/01/15 00:41:18;;;;;;;11.27;2.00;;;;;;;;;;4932922;29;20778;-82
2024/01/15 00:43:45;;;;;;;14.80;2.63;;;;;;;;;;4933257;29;20431;-82
2024/01/15 00:46:11;;;;;;;12.68;2.40;;;;;;;;;;4913431;29;20471;-82
2024/01/15 00:48:37;;;;;;;11.43;2.50;;;;;;;;;;4936109;29;20441;-82
2024/01/15 00:51:04;;;;;;;12.13;2.30;;;;;;;;;;4917903;29;20450;-81
2024/01/15 00:53:31;;;;;;;10.68;2.05;;;;;;;;;;4920502;29;20408;-81
2024/01/15 00:55:57;;;;;;;11.45;2.78;;;;;;;;;;4920624;29;20471;-80
2024/01/15 00:58:23;;;;;;;7.55;1.70;;;;;;;;;;4892097;29;20455;-81
2024/01/15 01:00:49;;;;;;;12.82;1.90;;;;;;;;;;4905011;29;20927;-81
2024/01/15 01:03:15;;;;;;;10.77;2.10;;;;;;;;;;4888784;29;20431;-81
2024/01/15 01:05:41;;;;;;;15.68;2.35;;;;;;;;;;4889229;29;20415;-81
2024/01/15 01:08:07;;;;;;;14.23;2.47;;;;;;;;;;4904782;29;20935;-80
2024/01/15 01:10:33;;;;;;;10.63;2.30;;;;;;;;;;4920270;29;20447;-80
2024/01/15 01:12:59;;;;;;;12.27;2.47;;;;;;;;;;4888989;29;20422;-80
2024/01/15 01:15:25;;;;;;;10.13;2.20;;;;;;;;;;4889307;29;20411;-80
2024/01/15 01:17:52;;;;;;;8.98;1.90;;;;;;;;;;4920604;29;20518;-81
2024/01/15 01:20:18;;;;;;;9.50;2.30;;;;;;;;;;4888416;29;20439;-81
2024/01/15 01:22:44;;;;;;;10.60;2.35;;;;;;;;;;4904930;29;20901;-81
2024/01/15 01:25:10;;;;;;;12.55;1.58;;;;;;;;;;4920625;29;20411;-81
2024/01/15 01:27:36;;;;;;;7.43;1.45;;;;;;;;;;4905476;29;20757;-81
2024/01/15 01:30:03;;;;;;;9.35;1.63;;;;;;;;;;4904675;29;20600;-81
2024/01/15 01:32:29;;;;;;;7.00;1.55;;;;;;;;;;4920751;29;20411;-81
2024/01/15 01:34:55;;;;;;;6.25;1.10;;;;;;;;;;4904938;29;20423;-81
2024/01/15 01:37:21;;;;;;;8.40;1.30;;;;;;;;;;4888093;29;20997;-81
2024/01/15 01:39:47;;;;;;;6.80;1.30;;;;;;;;;;4903045;29;20415;-81
2024/01/15 01:42:13;;;;;;;9.38;1.60;;;;;;;;;;4902134;29;20412;-81
2024/01/15 01:44:39;;;;;;;8.48;1.35;;;;;;;;;;4903886;29;20825;-81
2024/01/15 01:47:06;;;;;;;11.15;1.83;;;;;;;;;;4888243;29;20510;-81
2024/01/15 01:49:32;;;;;;;6.47;1.15;;;;;;;;;;4903903;29;20415;-81
2024/01/15 01:52:00;;;;;;;7.45;1.70;;;;;;;;;;4903526;29;20408;-81
2024/01/15 01:54:28;;;;;;;5.45;1.20;;;;;;;;;;4918991;29;20526;-81
2024/01/15 01:56:54;;;;;;;8.55;1.63;;;;;;;;;;4926225;29;20422;-82
2024/01/15 01:59:21;;;;;;;8.25;1.50;;;;;;;;;;4955360;28;20413;-81
2024/01/15 02:01:49;;;;;;;8.13;1.55;;;;;;;;;;4952520;28;20410;-82
2024/01/15 02:04:15;;;;;;;8.45;1.45;;;;;;;;;;4937980;29;20429;-81
2024/01/15 02:06:41;;;;;;;13.80;1.80;;;;;;;;;;4938198;29;20416;-82
2024/01/15 02:09:08;;;;;;;9.13;1.80;;;;;;;;;;4937974;28;20410;-82
2024/01/15 02:11:34;;;;;;;12.20;1.67;;;;;;;;;;4953354;28;20491;-81
2024/01/15 02:14:01;;;;;;;13.20;1.60;;;;;;;;;;4937614;28;20421;-82
2024/01/15 02:16:27;;;;;;;11.27;1.70;;;;;;;;;;4922722;29;20464;-81
2024/01/15 02:18:53;;;;;;;12.82;1.98;;;;;;;;;;4921895;29;20445;-82
2024/01/15 02:21:19;;;;;;;14.65;2.00;;;;;;;;;;4938747;28;20510;-81
2024/01/15 02:23:45;;;;;;;12.75;2.40;;;;;;;;;;4953272;28;20433;-81
2024/01/15 02:26:11;;;;;;;13.77;2.47;;;;;;;;;;4937795;29;20414;-82
2024/01/15 02:28:37;;;;;;;17.73;3.20;;;;;;;;;;4917548;29;20485;-82
2024/01/15 02:31:03;;;;;;;13.52;2.70;;;;;;;;;;4937814;29;20906;-82
2024/01/15 02:33:29;;;;;;;17.67;2.93;;;;;;;;;;4937812;29;20492;-82
2024/01/15 02:35:55;;;;;;;17.92;2.90;;;;;;;;;;4954255;28;20969;-81
2024/01/15 02:38:22;;;;;;;19.33;2.90;;;;;;;;;;4922290;28;20414;-80
2024/01/15 02:40:48;;;;;;;18.60;3.42;;;;;;;;;;4938052;29;20509;-80
2024/01/15 02:43:14;;;;;;;16.80;3.67;;;;;;;;;;4921578;29;20962;-80
2024/01/15 02:45:40;;;;;;;17.73;2.90;;;;;;;;;;4937102;28;20869;-80
2024/01/15 02:48:06;;;;;;;20.52;3.45;;;;;;;;;;4921592;29;20414;-80
2024/01/15 02:50:32;;;;;;;18.93;3.03;;;;;;;;;;4937609;29;20410;-81
2024/01/15 02:52:58;;;;;;;16.98;3.08;;;;;;;;;;4922012;29;20762;-81
2024/01/15 02:55:24;;;;;;;16.17;3.03;;;;;;;;;;4937779;28;20411;-81
2024/01/15 02:57:50;;;;;;;16.90;3.55;;;;;;;;;;4934868;29;20534;-81
2024/01/15 03:00:17;;;;;;;18.95;3.58;;;;;;;;;;4952579;28;20461;-80
2024/01/15 03:02:45;;;;;;;15.38;2.80;;;;;;;;;;4951964;29;20440;-81
2024/01/15 03:05:11;;;;;;;16.08;2.90;;;;;;;;;;4953366;28;20911;-81
2024/01/15 03:07:37;;;;;;;15.98;2.55;;;;;;;;;;4952928;28;20413;-81
2024/01/15 03:10:03;;;;;;;17.92;3.45;;;;;;;;;;4933889;28;20410;-81
2024/01/15 03:12:30;;;;;;;19.73;3.58;;;;;;;;;;4953153;28;21021;-81
2024/01/15 03:14:56;;;;;;;21.10;4.38;;;;;;;;;;4923539;29;20748;-81
2024/01/15 03:17:22;;;;;;;20.75;3.80;;;;;;;;;;4937101;29;20422;-81
2024/01/15 03:19:49;;;;;;;20.57;2.93;;;;;;;;;;4936664;29;20413;-81
2024/01/15 03:22:16;;;;;;;17.95;3.53;;;;;;;;;;4937062;28;20914;-81
2024/01/15 03:24:42;;;;;;;17.67;3.17;;;;;;;;;;4936773;29;20437;-81
2024/01/15 03:27:08;;;;;;;19.38;3.05;;;;;;;;;;4953060;29;20429;-81
2024/01/15 03:29:34;;;;;;;10.70;2.33;;;;;;;;;;4937440;28;20497;-80
2024/01/15 03:32:00;;;;;;;13.52;2.60;;;;;;;;;;4935803;28;20437;-80
2024/01/15 03:34:26;;;;;;;15.05;2.45;;;;;;;;;;4952611;28;20418;-81
2024/01/15 03:36:52;;;;;;;11.93;2.40;;;;;;;;;;4936167;29;20492;-81
2024/01/15 03:39:18;;;;;;;12.18;2.50;;;;;;;;;;4920751;29;20921;-81
2024/01/15 03:41:44;;;;;;;10.25;2.00;;;;;;;;;;4935623;29;20445;-78
2024/01/15 03:44:10;;;;;;;13.63;2.17;;;;;;;;;;4953007;28;20421;-80
2024/01/15 03:46:37;;;;;;;11.33;2.40;;;;;;;;;;4936741;29;21046;-81
2024/01/15 03:49:03;;;;;;;13.45;2.38;;;;;;;;;;4920224;29;20429;-80
2024/01/15 03:51:29;;;;;;;17.98;2.38;;;;;;;;;;4919814;28;20409;-80
2024/01/15 03:53:55;;;;;;;14.88;3.00;;;;;;;;;;4951803;28;20409;-81
2024/01/15 03:56:21;;;;;;;13.10;2.85;;;;;;;;;;4936189;28;21008;-81
2024/01/15 03:58:47;;;;;;;16.05;2.70;;;;;;;;;;4936885;29;20885;-80
2024/01/15 04:01:13;;;;;;;9.13;2.28;;;;;;;;;;4935466;29;20418;-81
2024/01/15 04:03:39;;;;;;;9.05;1.88;;;;;;;;;;4935401;29;20493;-80
2024/01/15 04:06:05;;;;;;;15.45;2.75;;;;;;;;;;4929689;29;20496;-80
2024/01/15 04:08:31;;;;;;;13.23;2.33;;;;;;;;;;4935978;28;20405;-80
2024/01/15 04:10:57;;;;;;;13.90;2.60;;;;;;;;;;4936555;28;20487;-80
2024/01/15 04:13:23;;;;;;;17.35;2.38;;;;;;;;;;4920975;28;20413;-81
2024/01/15 04:15:49;;;;;;;10.48;2.70;;;;;;;;;;4952192;28;20987;-80
2024/01/15 04:18:17;;;;;;;12.90;2.63;;;;;;;;;;4935833;28;20429;-81
2024/01/15 04:20:43;;;;;;;11.55;2.58;;;;;;;;;;4935294;28;20445;-80
2024/01/15 04:23:09;;;;;;;12.25;1.95;;;;;;;;;;4936206;29;20496;-80
2024/01/15 04:25:36;;;;;;;14.57;2.60;;;;;;;;;;4911408;29;20475;-80
2024/01/15 04:28:02;;;;;;;14.40;2.55;;;;;;;;;;4935956;28;20410;-79
2024/01/15 04:30:28;;;;;;;10.40;1.90;;;;;;;;;;4951219;29;20489;-79
2024/01/15 04:32:54;;;;;;;14.60;2.13;;;;;;;;;;4952269;28;20929;-80
2024/01/15 04:35:20;;;;;;;8.68;1.90;;;;;;;;;;4951813;28;20803;-80
2024/01/15 04:37:46;;;;;;;8.57;1.80;;;;;;;;;;4935686;29;20496;-80
2024/01/15 04:40:12;;;;;;;8.02;1.85;;;;;;;;;;4951725;28;20413;-80
2024/01/15 04:42:38;;;;;;;7.55;1.40;;;;;;;;;;4952282;28;20452;-80
2024/01/15 04:45:04;;;;;;;8.30;1.40;;;;;;;;;;4936374;29;20790;-80
2024/01/15 04:47:30;;;;;;;6.07;1.52;;;;;;;;;;4928116;28;20927;-80
2024/01/15 04:49:56;;;;;;;6.40;1.45;;;;;;;;;;4921052;29;20437;-80
2024/01/15 04:52:23;;;;;;;7.60;1.48;;;;;;;;;;4956564;28;20470;-79
2024/01/15 04:54:49;;;;;;;7.05;1.40;;;;;;;;;;4919736;29;20414;-80
2024/01/15 04:57:15;;;;;;;5.10;1.00;;;;;;;;;;4934718;29;20441;-80
2024/01/15 04:59:42;;;;;;;6.05;1.10;;;;;;;;;;4967455;28;20917;-80
2024/01/15 05:02:08;;;;;;;4.90;1.63;;;;;;;;;;4938075;28;20443;-80
2024/01/15 05:04:34;;;;;;;10.85;1.30;;;;;;;;;;4936362;29;20430;-81
2024/01/15 05:07:00;;;;;;;9.57;1.80;;;;;;;;;;4935844;28;20485;-81
2024/01/15 05:09:26;;;;;;;11.35;1.52;;;;;;;;;;4936545;29;20755;-81
2024/01/15 05:11:52;;;;;;;11.15;2.45;;;;;;;;;;4951525;28;20902;-81
2024/01/15 05:14:18;;;;;;;10.20;1.70;;;;;;;;;;4935094;29;20438;-80
2024/01/15 05:16:48;;;;;;;9.07;2.17;;;;;;;;;;4935034;28;20910;-80
2024/01/15 05:19:14;;;;;;;8.95;1.90;;;;;;;;;;4953143;28;20934;-80
2024/01/15 05:21:40;;;;;;;13.13;2.03;;;;;;;;;;4935672;29;20414;-80
2024/01/15 05:24:06;;;;;;;12.48;2.40;;;;;;;;;;4952028;28;20426;-81
2024/01/15 05:26:32;;;;;;;12.65;2.10;;;;;;;;;;4935355;29;20406;-80
2024/01/15 05:28:58;;;;;;;10.57;2.10;;;;;;;;;;4918067;28;20488;-80
2024/01/15 05:31:24;;;;;;;10.95;1.58;;;;;;;;;;4952388;29;20410;-80
2024/01/15 05:33:50;;;;;;;9.48;1.50;;;;;;;;;;4919626;28;20417;-80
2024/01/15 05:36:16;;;;;;;11.75;2.00;;;;;;;;;;4919078;28;20481;-80
2024/01/15 05:38:42;;;;;;;8.70;1.90;;;;;;;;;;4955064;28;20417;-79
2024/01/15 05:41:08;;;;;;;9.23;1.77;;;;;;;;;;4938287;28;20410;-80
2024/01/15 05:43:34;;;;;;;12.77;2.00;;;;;;;;;;4933045;28;20469;-79
2024/01/15 05:46:00;;;;;;;10.05;1.85;;;;;;;;;;4938616;28;20417;-79
2024/01/15 05:48:26;;;;;;;13.00;2.00;;;;;;;;;;4938915;28;20485;-80
2024/01/15 05:50:52;;;;;;;11.00;1.88;;;;;;;;;;4938360;29;20409;-80
2024/01/15 05:53:19;;;;;;;11.63;2.08;;;;;;;;;;4922691;28;20980;-81
2024/01/15 05:55:45;;;;;;;15.20;2.53;;;;;;;;;;4939955;29;20454;-80
2024/01/15 05:58:11;;;;;;;16.13;2.55;;;;;;;;;;4948278;28;20457;-80
2024/01/15 06:00:38;;;;;;;11.80;2.20;;;;;;;;;;4938997;29;20894;-80
2024/01/15 06:03:04;;;;;;;17.63;2.80;;;;;;;;;;4937213;28;20481;-80
2024/01/15 06:05:30;;;;;;;15.57;2.57;;;;;;;;;;4955357;28;20774;-83
2024/01/15 06:07:56;;;;;;;17.00;3.47;;;;;;;;;;4954720;28;20516;-83
2024/01/15 06:10:22;;;;;;;16.98;2.58;;;;;;;;;;4954613;29;20529;-82
2024/01/15 06:12:48;;;;;;;16.35;3.13;;;;;;;;;;4938979;29;20440;-83
2024/01/15 06:15:14;;;;;;;19.23;2.60;;;;;;;;;;4938737;29;20488;-83
2024/01/15 06:17:41;;;;;;;15.95;3.33;;;;;;;;;;4939048;29;20770;-84
2024/01/15 06:20:07;;;;;;;20.33;2.78;;;;;;;;;;4938056;29;20452;-84
2024/01/15 06:22:33;;;;;;;14.35;2.88;;;;;;;;;;4935438;28;20422;-84
2024/01/15 06:24:59;;;;;;;19.60;3.17;;;;;;;;;;4935013;29;20434;-83
2024/01/15 06:27:25;;;;;;;17.08;2.80;;;;;;;;;;4954617;28;20867;-82
2024/01/15 06:29:51;;;;;;;19.85;3.13;;;;;;;;;;4938081;29;20910;-83
2024/01/15 06:32:17;;;;;;;17.70;2.67;;;;;;;;;;4933661;29;20431;-84
2024/01/15 06:34:44;;;;;;;14.25;2.80;;;;;;;;;;4945075;28;20414;-83
2024/01/15 06:37:10;;;;;;;23.52;4.32;;;;;;;;;;4949777;28;20525;-84
2024/01/15 06:39:36;;;;;;;16.42;2.90;;;;;;;;;;4923303;28;20476;-82
2024/01/15 06:42:02;;;;;;;17.55;3.17;;;;;;;;;;4938725;29;20921;-83
2024/01/15 06:44:28;;;;;;;13.80;2.30;;;;;;;;;;4954182;28;20500;-82
2024/01/15 06:46:57;;;;;;;19.60;3.33;;;;;;;;;;4954261;28;20429;-82
2024/01/15 06:49:26;;;;;;;20.00;2.97;;;;;;;;;;4953017;28;20409;-81
2024/01/15 06:51:52;;;;;;;17.77;3.25;;;;;;;;;;4954685;28;20906;-83
2024/01/15 06:54:18;;;;;;;18.85;3.08;;;;;;;;;;4937626;28;20432;-80
2024/01/15 06:56:44;;;;;;;21.92;3.10;;;;;;;;;;4921369;28;20457;-80
2024/01/15 06:59:10;;;;;;;16.10;2.63;;;;;;;;;;4920596;28;20425;-80
2024/01/15 07:01:37;;;;;;;15.77;2.80;;;;;;;;;;4950499;28;20836;-80
2024/01/15 07:04:03;;;;;;;13.93;2.70;;;;;;;;;;4920824;28;20457;-81
2024/01/15 07:06:30;;;;;;;24.05;3.38;;;;;;;;;;4953812;28;20414;-81
2024/01/15 07:08:57;;;;;;;18.83;2.80;;;;;;;;;;4936627;29;20414;-81
2024/01/15 07:11:23;;;;;;;13.30;2.10;;;;;;;;;;4936770;28;20410;-81
2024/01/15 07:13:49;;;;;;;12.60;2.22;;;;;;;;;;4936401;29;20420;-80
2024/01/15 07:16:15;;;;;;;14.85;2.80;;;;;;;;;;4937316;28;20447;-80
2024/01/15 07:18:41;;;;;;;13.23;2.30;;;;;;;;;;4936342;29;20440;-81
2024/01/15 07:21:07;;;;;;;10.15;2.00;;;;;;;;;;4953491;28;20418;-80
2024/01/15 07:23:33;;;;;;;13.07;2.00;;;;;;;;;;4924110;29;20437;-81
2024/01/15 07:26:00;;;;;;;11.32;1.85;;;;;;;;;;4934382;29;20881;-81
2024/01/15 07:28:26;;;;;;;12.52;2.05;;;;;;;;;;4947118;28;20826;-80
2024/01/15 07:30:52;;;;;;;10.80;1.80;;;;;;;;;;4933887;29;20430;-81
2024/01/15 07:33:18;;;;;;;19.85;2.67;;;;;;;;;;4932054;29;20790;-81
2024/01/15 07:35:44;;;;;;;11.03;2.30;;;;;;;;;;4936743;28;20409;-81
2024/01/15 07:38:11;;;;;;;9.35;1.80;;;;;;;;;;4936124;29;20414;-82
2024/01/15 07:40:37;;;;;;;11.02;1.83;;;;;;;;;;4937138;29;20824;-82
2024/01/15 07:43:04;;;;;;;9.45;2.00;;;;;;;;;;4931619;29;20439;-81
2024/01/15 07:45:30;;;;;;;9.63;2.83;;;;;;;;;;4950632;28;20421;-81
2024/01/15 07:47:58;;;;;;;15.53;2.73;;;;;;;;;;4934616;28;20465;-82
2024/01/15 07:50:24;;;;;;;12.07;2.00;;;;;;;;;;4935226;28;20496;-82
2024/01/15 07:52:51;;;;;;;11.07;2.10;;;;;;;;;;4937230;29;20414;-81
2024/01/15 07:55:17;;;;;;;14.88;3.10;;;;;;;;;;4920882;29;20413;-81
2024/01/15 07:57:43;;;;;;;10.20;1.98;;;;;;;;;;4934710;28;20434;-81
2024/01/15 08:00:09;;;;;;;8.27;2.28;;;;;;;;;;4920122;28;20409;-82
2024/01/15 08:02:35;;;;;;;13.60;2.17;;;;;;;;;;4919713;29;20428;-82
2024/01/15 08:05:01;;;;;;;10.35;2.28;;;;;;;;;;4951759;28;20434;-83
2024/01/15 08:07:28;;;;;;;13.87;2.87;;;;;;;;;;4952057;28;20421;-82
2024/01/15 08:09:54;;;;;;;13.80;3.20;;;;;;;;;;4952024;28;20834;-81
2024/01/15 08:12:20;;;;;;;12.10;2.10;;;;;;;;;;4935372;29;20469;-82
2024/01/15 08:14:46;;;;;;;11.50;2.10;;;;;;;;;;4920800;28;20493;-82
2024/01/15 08:17:12;;;;;;;9.75;2.60;;;;;;;;;;4936106;28;20512;-82
2024/01/15 08:19:40;;;;;;;8.95;1.95;;;;;;;;;;4937206;28;20405;-83
2024/01/15 08:22:07;;;;;;;11.07;2.28;;;;;;;;;;4953666;28;20767;-81
2024/01/15 08:24:33;;;;;;;19.77;2.47;;;;;;;;;;4931330;29;20662;-82
2024/01/15 08:26:59;;;;;;;10.75;2.25;;;;;;;;;;4930847;29;20439;-83
2024/01/15 08:29:25;;;;;;;11.35;2.60;;;;;;;;;;4948304;28;20413;-83
2024/01/15 08:31:51;;;;;;;20.45;2.30;;;;;;;;;;4964470;28;20460;-82
2024/01/15 08:34:18;;;;;;;11.57;2.10;;;;;;;;;;4936382;28;20428;-82
2024/01/15 08:36:44;;;;;;;10.45;2.13;;;;;;;;;;4937451;29;20414;-82
2024/01/15 08:39:10;;;;;;;11.23;2.55;;;;;;;;;;4937365;28;20453;-82
2024/01/15 08:41:36;;;;;;;10.50;2.00;;;;;;;;;;4936822;28;20504;-83
2024/01/15 08:44:05;;;;;;;13.43;2.38;;;;;;;;;;4937123;28;20438;-84
2024/01/15 08:46:31;;;;;;;9.50;2.10;;;;;;;;;;4951783;28;20425;-82
2024/01/15 08:48:57;;;;;;;10.32;2.03;;;;;;;;;;4936736;29;20414;-81
2024/01/15 08:51:24;;;;;;;13.45;2.35;;;;;;;;;;4918045;29;20439;-82
2024/01/15 08:53:50;;;;;;;9.65;1.60;;;;;;;;;;4951984;28;20492;-83
2024/01/15 08:56:16;;;;;;;7.83;1.50;;;;;;;;;;4934974;29;20441;-83
2024/01/15 08:58:42;;;;;;;7.20;1.60;;;;;;;;;;4934828;28;20432;-82
2024/01/15 09:01:08;;;;;;;5.40;1.27;;;;;;;;;;4950751;28;20468;-83
2024/01/15 09:03:34;;;;;;;5.72;1.33;;;;;;;;;;4935147;28;20437;-82
2024/01/15 09:06:00;;;;;;;6.57;1.20;;;;;;;;;;4950819;28;20420;-82
2024/01/15 09:08:27;;;;;;;6.93;1.27;;;;;;;;;;4935877;28;20421;-82
2024/01/15 09:10:53;;;;;;;6.63;1.30;;;;;;;;;;4920248;29;20421;-83
2024/01/15 09:13:19;;;;;;;7.35;1.33;;;;;;;;;;4954470;28;20437;-80
2024/01/15 09:15:46;;;;;;;8.10;1.50;;;;;;;;;;4955531;28;20952;-82
2024/01/15 09:18:12;;;;;;;7.53;2.00;;;;;;;;;;4954225;28;20452;-82
2024/01/15 09:20:38;;;;;;;6.55;1.52;;;;;;;;;;4956138;28;20417;-82
2024/01/15 09:23:04;;;;;;;8.17;1.90;;;;;;;;;;4956160;28;20795;-82
2024/01/15 09:25:30;;;;;;;8.95;2.10;;;;;;;;;;4956104;28;20397;-82
2024/01/15 09:27:57;;;;;;;13.52;2.33;;;;;;;;;;4923561;29;20426;-82
2024/01/15 09:30:23;;;;;;;9.05;2.15;;;;;;;;;;4940007;29;20417;-83
2024/01/15 09:32:51;;;;;;;13.77;2.20;;;;;;;;;;4924148;28;20451;-83
2024/01/15 09:35:17;;;;;;;8.07;1.92;;;;;;;;;;4939452;28;20496;-82
2024/01/15 09:37:43;;;;;;;7.70;1.70;;;;;;;;;;4950997;28;20433;-82
2024/01/15 09:40:14;;;;;;;7.95;1.83;;;;;;;;;;4939425;29;20454;-82
2024/01/15 09:42:42;;;;;;;10.27;2.00;;;;;;;;;;4939026;29;20417;-82
2024/01/15 09:45:11;;;;;;;7.97;1.70;;;;;;;;;;4938505;28;20453;-85
2024/01/15 09:47:39;;;;;;;8.55;2.05;;;;;;;;;;4935842;29;20437;-84
2024/01/15 09:50:05;;;;;;;14.02;2.03;;;;;;;;;;4954695;28;20417;-83
2024/01/15 09:52:31;;;;;;;12.85;2.42;;;;;;;;;;4922876;29;20908;-83
2024/01/15 09:54:59;;;;;;;12.40;2.00;;;;;;;;;;4939247;29;20492;-83
2024/01/15 09:57:28;;;;;;;13.13;2.78;;;;;;;;;;4939101;29;20414;-83
2024/01/15 09:59:55;;;;;;;11.25;2.22;;;;;;;;;;4938927;29;20410;-83
2024/01/15 10:02:21;;;;;;;10.30;2.05;;;;;;;;;;4954966;28;20485;-84
2024/01/15 10:04:47;;;;;;;12.10;2.30;;;;;;;;;;4949711;28;20501;-84
2024/01/15 10:07:19;;;;;;;12.52;2.05;;;;;;;;;;4955014;28;20963;-82
2024/01/15 10:09:47;;;;;;;14.48;2.45;;;;;;;;;;4925551;28;20945;-84
2024/01/15 10:12:13;;;;;;;12.27;2.28;;;;;;;;;;4953902;28;20416;-83
2024/01/15 10:14:39;;;;;;;10.55;2.20;;;;;;;;;;4922591;28;20417;-83
2024/01/15 10:17:17;;;;;;;10.83;2.20;;;;;;;;;;4954130;28;20429;-84
2024/01/15 10:19:43;;;;;;;11.15;2.60;;;;;;;;;;4955431;28;20410;-83
2024/01/15 10:22:10;;;;;;;14.75;2.00;;;;;;;;;;4937629;28;20417;-84
2024/01/15 10:24:40;;;;;;;11.18;1.98;;;;;;;;;;4938249;29;20468;-83
2024/01/15 10:27:07;;;;;;;11.48;1.95;;;;;;;;;;4936198;28;20429;-83
2024/01/15 10:29:33;;;;;;;11.30;2.03;;;;;;;;;;4961090;28;20430;-83
2024/01/15 10:32:00;;;;;;;8.38;1.80;;;;;;;;;;4923336;29;20511;-83
2024/01/15 10:34:26;;;;;;;6.40;1.42;;;;;;;;;;4935485;29;20416;-84
2024/01/15 10:36:55;;;;;;;7.35;1.40;;;;;;;;;;4950578;28;20497;-83
2024/01/15 10:39:25;;;;;;;6.40;1.30;;;;;;;;;;4938430;28;20414;-82
2024/01/15 10:41:51;;;;;;;7.05;1.67;;;;;;;;;;4956897;28;20421;-81
2024/01/15 10:44:19;;;;;;;5.70;1.20;;;;;;;;;;4955183;28;20469;-81
2024/01/15 10:46:46;;;;;;;7.75;1.50;;;;;;;;;;4953741;28;20413;-81
2024/01/15 10:49:12;;;;;;;6.93;1.70;;;;;;;;;;4938152;29;20409;-81
2024/01/15 10:51:38;;;;;;;7.15;1.70;;;;;;;;;;4922304;29;20406;-81
2024/01/15 10:54:05;;;;;;;6.70;1.60;;;;;;;;;;4938155;28;20413;-80
2024/01/15 10:56:33;;;;;;;7.40;1.58;;;;;;;;;;4954047;28;20418;-81
2024/01/15 10:58:59;;;;;;;8.63;1.85;;;;;;;;;;4937275;29;20453;-81
2024/01/15 11:01:26;;;;;;;10.80;2.00;;;;;;;;;;4936677;29;20457;-80
2024/01/15 11:03:52;;;;;;;8.65;1.45;;;;;;;;;;4921798;29;20434;-81
2024/01/15 11:06:22;;;;;;;9.07;1.67;;;;;;;;;;4950420;28;20814;-80
2024/01/15 11:08:52;;;;;;;7.88;1.45;;;;;;;;;;4919223;29;20448;-81
2024/01/15 11:11:19;;;;;;;9.75;1.65;;;;;;;;;;4937295;29;20449;-81
2024/01/15 11:13:51;;;;;;;10.18;2.05;;;;;;;;;;4936713;29;20739;-82
2024/01/15 11:16:17;;;;;;;9.82;1.90;;;;;;;;;;4951556;28;20425;-80
2024/01/15 11:18:44;;;;;;;9.00;2.08;;;;;;;;;;4953098;28;20811;-78
2024/01/15 11:21:16;;;;;;;8.38;1.70;;;;;;;;;;4944999;29;20523;-80
2024/01/15 11:23:44;;;;;;;9.30;1.52;;;;;;;;;;4945876;28;20938;-79
2024/01/15 11:26:29;;;;;;;8.47;1.47;;;;;;;;;;4936635;29;20924;-80
2024/01/15 11:28:56;;;;;;;10.18;1.77;;;;;;;;;;4953685;28;20441;-80
2024/01/15 11:31:42;;;;;;;6.68;1.40;;;;;;;;;;4922962;28;20414;-80
2024/01/15 11:34:09;;;;;;;8.55;2.63;;;;;;;;;;4933324;29;20427;-81
2024/01/15 11:36:50;;;;;;;6.85;1.50;;;;;;;;;;4919998;28;20410;-80
2024/01/15 11:39:29;;;;;;;8.68;1.20;;;;;;;;;;4936880;29;20420;-80
2024/01/15 11:41:59;;;;;;;3.33;0.88;;;;;;;;;;4951270;28;20421;-80
2024/01/15 11:44:26;;;;;;;4.20;0.93;;;;;;;;;;4952619;28;20433;-80
2024/01/15 11:47:08;;;;;;;2.35;0.98;;;;;;;;;;4937011;29;20425;-81
2024/01/15 11:49:57;;;;;;;5.60;0.73;;;;;;;;;;4941733;28;20423;-80
2024/01/15 11:52:23;;;;;;;5.10;0.70;;;;;;;;;;4949127;28;20500;-78
2024/01/15 11:54:56;;;;;;;3.90;0.70;;;;;;;;;;4935974;29;20413;-79
2024/01/15 11:57:27;;;;;;;6.43;1.10;;;;;;;;;;4951449;29;20436;-78
2024/01/15 11:59:53;;;;;;;6.00;1.35;;;;;;;;;;4935487;29;20505;-78
2024/01/15 12:02:19;;;;;;;7.93;1.38;;;;;;;;;;4943914;29;20421;-79
2024/01/15 12:04:45;;;;;;;7.80;1.67;;;;;;;;;;4919959;28;20513;-79
2024/01/15 12:07:11;;;;;;;11.63;2.30;;;;;;;;;;4935206;29;20890;-80
2024/01/15 12:09:43;;;;;;;11.35;2.50;;;;;;;;;;4936415;29;20497;-80
2024/01/15 12:12:13;;;;;;;12.07;2.20;;;;;;;;;;4934838;29;20724;-80
2024/01/15 12:14:39;;;;;;;11.55;2.65;;;;;;;;;;4934129;28;20496;-80
2024/01/15 12:17:06;;;;;;;11.48;2.30;;;;;;;;;;4934458;29;20488;-80
2024/01/15 12:19:32;;;;;;;14.98;5.00;;;;;;;;;;4935566;28;20849;-80
2024/01/15 12:21:58;;;;;;;12.32;3.58;;;;;;;;;;4949831;28;20409;-80
2024/01/15 12:24:24;;;;;;;20.20;5.63;;;;;;;;;;4934273;28;21005;-80
2024/01/15 12:26:50;;;;;;;27.35;15.20;;;;;;;;;;4933833;28;21596;-80
2024/01/15 12:29:18;;;;;;;11.48;2.53;;;;;;;;;;4918630;28;20405;-80
2024/01/15 12:31:47;;;;;;;14.25;2.92;;;;;;;;;;4945853;28;20431;-80
2024/01/15 12:34:13;;;;;;;11.90;2.20;;;;;;;;;;4948807;28;20430;-80
2024/01/15 12:36:40;;;;;;;12.63;2.28;;;;;;;;;;4919217;29;20428;-81
2024/01/15 12:39:08;;;;;;;10.68;2.15;;;;;;;;;;4935308;29;20421;-81
2024/01/15 12:41:35;;;;;;;12.38;2.55;;;;;;;;;;4935572;29;20513;-81
2024/01/15 12:44:04;;;;;;;14.80;2.60;;;;;;;;;;4935058;29;20790;-82
2024/01/15 12:46:33;;;;;;;13.45;2.47;;;;;;;;;;4937810;28;20448;-81
2024/01/15 12:48:59;;;;;;;18.13;3.07;;;;;;;;;;4945369;28;20486;-84
2024/01/15 12:51:26;;;;;;;9.57;2.00;;;;;;;;;;4958890;28;20414;-84
2024/01/15 12:53:52;;;;;;;10.75;2.25;;;;;;;;;;4940499;29;21268;-83
2024/01/15 12:56:18;;;;;;;9.73;2.17;;;;;;;;;;4957555;28;20421;-84
2024/01/15 12:58:44;;;;;;;12.38;3.28;;;;;;;;;;4958982;28;20421;-85
2024/01/15 13:01:10;;;;;;;9.68;2.45;;;;;;;;;;4949784;28;20803;-83
2024/01/15 13:03:37;;;;;;;7.25;1.95;;;;;;;;;;4938212;28;20438;-83
2024/01/15 13:06:03;;;;;;;14.93;2.75;;;;;;;;;;4938177;29;20425;-83
2024/01/15 13:08:29;;;;;;;12.18;2.53;;;;;;;;;;4938558;28;20437;-83
2024/01/15 13:10:57;;;;;;;10.93;2.00;;;;;;;;;;4945887;28;20562;-83
2024/01/15 13:13:23;;;;;;;12.53;2.07;;;;;;;;;;4935115;29;20413;-83
2024/01/15 13:15:49;;;;;;;9.73;2.15;;;;;;;;;;4940142;28;20838;-83
2024/01/15 13:18:15;;;;;;;11.43;1.80;;;;;;;;;;4933522;28;20764;-83
2024/01/15 13:20:42;;;;;;;13.55;2.60;;;;;;;;;;4956663;28;20417;-82
2024/01/15 13:23:09;;;;;;;9.65;2.20;;;;;;;;;;4939807;29;20777;-82
2024/01/15 13:25:37;;;;;;;11.02;2.40;;;;;;;;;;4936622;29;20431;-83
2024/01/15 13:28:04;;;;;;;10.60;2.17;;;;;;;;;;4940656;28;20411;-83
2024/01/15 13:30:31;;;;;;;22.42;9.32;;;;;;;;;;4956126;28;20414;-82
2024/01/15 13:33:03;;;;;;;23.40;8.10;;;;;;;;;;4943987;29;20432;-82
2024/01/15 13:35:29;;;;;;;18.10;5.65;;;;;;;;;;4936296;28;20414;-83
2024/01/15 13:37:55;;;;;;;25.85;10.32;;;;;;;;;;4926070;28;20748;-83
2024/01/15 13:40:21;;;;;;;27.27;11.77;;;;;;;;;;4926268;28;20418;-83
2024/01/15 13:42:48;;;;;;;12.75;2.17;;;;;;;;;;4957822;28;20418;-83
2024/01/15 13:45:14;;;;;;;10.48;1.90;;;;;;;;;;4939669;29;20500;-83
2024/01/15 13:47:43;;;;;;;23.38;7.03;;;;;;;;;;4956592;28;20425;-84
2024/01/15 13:50:09;;;;;;;12.00;2.33;;;;;;;;;;4933316;29;20432;-83
2024/01/15 13:52:35;;;;;;;13.73;2.17;;;;;;;;;;4924591;29;20417;-83
2024/01/15 13:55:02;;;;;;;15.32;2.63;;;;;;;;;;4940537;28;20413;-83
2024/01/15 13:57:28;;;;;;;15.23;3.17;;;;;;;;;;4937250;29;20422;-83
2024/01/15 13:59:55;;;;;;;13.48;2.80;;;;;;;;;;4935330;29;20433;-82
2024/01/15 14:02:21;;;;;;;13.52;2.58;;;;;;;;;;4938592;29;20512;-81
2024/01/15 14:04:49;;;;;;;11.82;2.40;;;;;;;;;;4938179;29;20434;-82
2024/01/15 14:07:15;;;;;;;18.50;3.25;;;;;;;;;;4939292;28;20418;-83
2024/01/15 14:09:42;;;;;;;17.25;2.53;;;;;;;;;;4935594;28;20425;-81
2024/01/15 14:12:08;;;;;;;15.47;2.60;;;;;;;;;;4937500;28;20410;-83
2024/01/15 14:14:34;;;;;;;15.80;2.85;;;;;;;;;;4953913;28;20421;-81
2024/01/15 14:17:00;;;;;;;18.13;3.10;;;;;;;;;;4954261;28;20426;-81
2024/01/15 14:19:26;;;;;;;18.63;2.78;;;;;;;;;;4920003;29;20441;-81
2024/01/15 14:21:52;;;;;;;17.35;2.90;;;;;;;;;;4953946;28;20425;-81
2024/01/15 14:24:19;;;;;;;17.67;3.35;;;;;;;;;;4953810;28;20449;-81
2024/01/15 14:26:45;;;;;;;17.00;3.00;;;;;;;;;;4922766;28;20398;-81
2024/01/15 14:29:11;;;;;;;19.53;3.50;;;;;;;;;;4953722;28;20490;-84
2024/01/15 14:31:37;;;;;;;16.77;2.70;;;;;;;;;;4922814;28;20410;-84